Time;durP1;ratioP1;P1;durP2;ratioP2;P2;SDS_P1;SDS_P2;PMS_P1;PMS_P2;Temp;Humidity;BMP_temperature;BMP_pressure;BME280_temperature;BME280_humidity;BME280_pressure;Samples;Min_cycle;Max_cycle;Signal;HPM_P1;HPM_P2
2021/01/04 00:01:10;;;;;;;22.45;12.35;;;;;;;2.88;76.96;99454.03;3829685;23;20026;-79
2021/01/04 00:03:03;;;;;;;21.33;13.02;;;;;;;2.86;76.93;99448.00;3830163;23;20032;-78
2021/01/04 00:05:01;;;;;;;19.80;11.30;;;;;;;2.82;76.95;99444.75;3833207;23;20029;-80
2021/01/04 00:07:15;;;;;;;22.50;12.18;;;;;;;2.85;77.27;99460.34;3823121;23;20048;-77
2021/01/04 00:09:02;;;;;;;25.70;14.60;;;;;;;2.84;77.09;99441.97;3791689;23;20026;-78
2021/01/04 00:10:42;;;;;;;24.35;13.77;;;;;;;2.88;77.19;99443.47;3794980;23;20091;-79
2021/01/04 00:12:17;;;;;;;24.40;12.13;;;;;;;2.87;77.51;99437.31;3792666;23;20006;-78
2021/01/04 00:13:59;;;;;;;25.58;14.45;;;;;;;2.94;77.11;99443.00;3807700;23;20032;-79
2021/01/04 00:15:37;;;;;;;20.48;10.77;;;;;;;2.92;77.18;99435.22;3829582;23;20036;-80
2021/01/04 00:17:16;;;;;;;24.92;14.05;;;;;;;2.95;77.06;99439.41;3833186;23;20029;-78
2021/01/04 00:19:00;;;;;;;25.27;14.50;;;;;;;2.84;76.92;99437.53;3830384;23;20022;-78
2021/01/04 00:20:39;;;;;;;26.30;14.60;;;;;;;2.76;77.30;99431.97;3830181;23;20057;-78
2021/01/04 00:22:20;;;;;;;26.48;15.30;;;;;;;2.73;77.43;99434.84;3833398;23;20030;-77
2021/01/04 00:24:03;;;;;;;23.60;13.25;;;;;;;2.70;77.46;99435.88;3826760;23;20034;-79
2021/01/04 00:25:48;;;;;;;25.33;13.50;;;;;;;2.67;77.32;99435.25;3832467;23;20033;-79
2021/01/04 00:27:27;;;;;;;20.75;12.60;;;;;;;2.64;77.56;99429.28;3828015;23;20021;-79
2021/01/04 00:28:59;;;;;;;24.67;14.15;;;;;;;2.64;77.57;99429.28;3831284;23;20068;-79
2021/01/04 00:30:35;;;;;;;26.40;14.82;;;;;;;2.63;77.71;99435.50;3830188;23;20024;-79
2021/01/04 00:32:15;;;;;;;24.70;14.30;;;;;;;2.62;77.81;99433.81;3831945;23;20020;-79
2021/01/04 00:33:51;;;;;;;24.15;13.70;;;;;;;2.61;77.88;99437.41;3829676;23;20026;-78
2021/01/04 00:35:25;;;;;;;24.33;13.88;;;;;;;2.67;77.85;99432.63;3831761;23;20013;-78
2021/01/04 00:37:38;;;;;;;19.15;11.02;;;;;;;2.63;77.54;99440.78;3831905;23;20020;-79
2021/01/04 00:39:36;;;;;;;22.25;12.00;;;;;;;2.63;77.71;99442.56;3774457;23;20051;-79
2021/01/04 00:41:15;;;;;;;22.45;13.80;;;;;;;2.62;77.82;99440.88;3824408;23;20036;-79
2021/01/04 00:42:49;;;;;;;22.40;12.45;;;;;;;2.68;77.75;99436.94;3829898;23;20258;-79
2021/01/04 00:44:27;;;;;;;26.48;15.82;;;;;;;2.64;77.38;99439.81;3833649;23;20086;-80
2021/01/04 00:45:59;;;;;;;25.00;13.98;;;;;;;2.69;77.70;99443.91;3830430;23;20032;-79
2021/01/04 00:47:37;;;;;;;23.73;13.98;;;;;;;2.68;77.64;99436.94;3831101;23;20026;-79
2021/01/04 00:49:16;;;;;;;22.83;12.40;;;;;;;2.65;77.70;99438.84;3832451;23;20024;-79
2021/01/04 00:51:03;;;;;;;23.73;13.82;;;;;;;2.68;77.54;99434.31;3830812;23;20026;-80
2021/01/04 00:52:41;;;;;;;24.88;13.60;;;;;;;2.65;77.75;99430.94;3831769;23;20121;-80
2021/01/04 00:54:39;;;;;;;27.80;15.70;;;;;;;2.50;77.98;99434.66;3831190;23;20040;-76
2021/01/04 00:56:43;;;;;;;21.35;12.07;;;;;;;2.53;78.26;99438.88;3832926;23;20028;-79
2021/01/04 00:58:29;;;;;;;26.58;15.65;;;;;;;2.53;78.25;99439.75;3832093;23;20057;-80
2021/01/04 01:00:11;;;;;;;25.65;15.25;;;;;;;2.47;78.12;99445.44;3829650;23;20021;-79
2021/01/04 01:02:06;;;;;;;20.73;11.52;;;;;;;2.54;78.30;99449.34;3833579;23;20021;-78
2021/01/04 01:03:54;;;;;;;19.85;11.82;;;;;;;2.54;78.26;99446.72;3829727;23;20021;-78
2021/01/04 01:05:35;;;;;;;22.17;12.55;;;;;;;2.56;78.19;99449.22;3827990;23;20025;-76
2021/01/04 01:07:13;;;;;;;25.15;15.20;;;;;;;2.47;78.09;99455.97;3832973;23;20025;-77
2021/01/04 01:08:44;;;;;;;28.05;16.30;;;;;;;2.39;78.51;99453.03;3834973;23;20018;-77
2021/01/04 01:10:16;;;;;;;24.10;13.32;;;;;;;2.49;78.36;99454.09;3832327;23;20032;-77
2021/01/04 01:12:21;;;;;;;23.83;13.48;;;;;;;2.45;77.95;99447.34;3830717;23;20017;-79
2021/01/04 01:13:58;;;;;;;23.63;14.18;;;;;;;2.34;78.23;99446.31;3831867;23;20025;-77
2021/01/04 01:15:34;;;;;;;23.58;13.57;;;;;;;2.35;78.38;99452.41;3829620;23;20041;-77
2021/01/04 01:17:30;;;;;;;25.52;14.48;;;;;;;2.28;78.45;99441.44;3831785;23;20024;-76
2021/01/04 01:19:16;;;;;;;22.40;13.43;;;;;;;2.31;78.44;99457.06;3812577;23;20010;-78
2021/01/04 01:20:53;;;;;;;25.05;14.23;;;;;;;2.30;78.48;99460.66;3829429;23;20028;-78
2021/01/04 01:22:28;;;;;;;24.73;14.40;;;;;;;2.32;78.55;99464.03;3832852;23;20022;-78
2021/01/04 01:24:01;;;;;;;26.35;14.95;;;;;;;2.34;78.64;99459.50;3826406;23;20013;-78
2021/01/04 01:25:43;;;;;;;22.65;11.77;;;;;;;2.38;78.19;99461.91;3831714;23;20026;-78
2021/01/04 01:27:35;;;;;;;19.90;10.57;;;;;;;2.43;77.83;99465.06;3828147;23;20077;-79
2021/01/04 01:29:30;;;;;;;23.25;12.52;;;;;;;2.46;77.90;99468.34;3831269;23;20022;-78
2021/01/04 01:31:23;;;;;;;23.15;11.60;;;;;;;2.49;77.98;99469.91;3828442;23;20072;-78
2021/01/04 01:33:36;;;;;;;19.88;10.80;;;;;;;2.52;77.57;99480.28;3825195;23;20029;-79
2021/01/04 01:35:27;;;;;;;23.48;12.60;;;;;;;2.50;77.77;99467.16;3809884;23;20021;-77
2021/01/04 01:37:20;;;;;;;23.42;12.98;;;;;;;2.50;77.42;99466.34;3829762;23;20078;-79
2021/01/04 01:39:25;;;;;;;20.35;10.35;;;;;;;2.50;77.77;99472.44;3827198;23;20017;-79
2021/01/04 01:41:32;;;;;;;23.90;13.25;;;;;;;2.46;77.61;99464.84;3830704;23;20026;-79
2021/01/04 01:43:23;;;;;;;27.40;14.18;;;;;;;2.42;77.75;99466.03;3829928;23;20076;-79
2021/01/04 01:45:02;;;;;;;25.67;13.55;;;;;;;2.41;77.72;99477.53;3828504;23;20025;-77
2021/01/04 01:46:38;;;;;;;30.80;15.77;;;;;;;2.39;78.02;99468.88;3832201;23;20025;-78
2021/01/04 01:48:17;;;;;;;24.05;13.07;;;;;;;2.38;78.25;99469.81;3827060;23;20169;-78
2021/01/04 01:50:05;;;;;;;22.70;11.85;;;;;;;2.43;77.89;99465.06;3829835;23;20051;-80
2021/01/04 01:51:57;;;;;;;30.20;15.85;;;;;;;2.46;77.43;99478.03;3826532;23;20014;-78
2021/01/04 01:53:40;;;;;;;32.20;16.38;;;;;;;2.28;77.95;99469.63;3829158;23;20025;-78
2021/01/04 01:55:24;;;;;;;32.38;15.88;;;;;;;2.21;78.21;99471.00;3831643;23;20028;-77
2021/01/04 01:57:19;;;;;;;31.88;18.08;;;;;;;2.10;78.22;99471.72;3829693;23;20013;-77
2021/01/04 01:59:07;;;;;;;28.35;16.52;;;;;;;2.10;78.58;99464.66;3831766;23;20022;-78
2021/01/04 02:00:45;;;;;;;34.33;15.80;;;;;;;2.21;78.33;99466.56;3828459;23;20077;-78
2021/01/04 02:02:26;;;;;;;26.70;14.75;;;;;;;2.24;78.24;99465.50;3831488;23;20014;-79
2021/01/04 02:04:04;;;;;;;30.30;14.43;;;;;;;2.31;78.35;99466.78;3830926;23;20022;-78
2021/01/04 02:06:11;;;;;;;28.88;16.20;;;;;;;2.33;77.82;99476.28;3827500;23;20026;-79
2021/01/04 02:07:48;;;;;;;34.30;18.00;;;;;;;2.24;78.15;99479.53;3830389;23;20025;-78
2021/01/04 02:09:24;;;;;;;26.80;15.32;;;;;;;2.24;78.31;99476.03;3827744;23;20028;-82
2021/01/04 02:10:59;;;;;;;32.67;16.00;;;;;;;2.29;78.02;99481.88;3832265;23;20017;-78
2021/01/04 02:12:40;;;;;;;30.75;16.75;;;;;;;2.25;78.15;99469.81;3833625;23;20016;-77
2021/01/04 02:14:17;;;;;;;30.90;17.88;;;;;;;2.27;78.00;99473.22;3836028;23;20013;-77
2021/01/04 02:15:52;;;;;;;32.95;17.50;;;;;;;2.14;78.35;99475.84;3830600;23;20022;-80
2021/01/04 02:17:59;;;;;;;29.20;15.35;;;;;;;2.05;78.44;99477.31;3828597;23;20054;-76
2021/01/04 02:19:47;;;;;;;37.15;19.08;;;;;;;1.98;78.91;99466.34;3829725;23;20036;-78
2021/01/04 02:22:04;;;;;;;29.77;16.58;;;;;;;2.09;78.50;99472.66;3827612;23;20024;-79
2021/01/04 02:23:40;;;;;;;30.40;14.13;;;;;;;2.13;78.58;99464.44;3824340;23;20062;-77
2021/01/04 02:25:13;;;;;;;27.65;15.27;;;;;;;2.19;78.28;99471.09;3829590;23;20049;-80
2021/01/04 02:26:49;;;;;;;32.63;15.30;;;;;;;2.20;78.33;99471.94;3825991;23;20033;-80
2021/01/04 02:28:25;;;;;;;30.65;14.45;;;;;;;2.21;78.31;99471.84;3827891;23;20030;-79
2021/01/04 02:29:57;;;;;;;23.23;12.30;;;;;;;2.25;78.10;99468.03;3826703;23;20026;-80
2021/01/04 02:31:29;;;;;;;33.45;16.08;;;;;;;2.25;77.88;99465.41;3829068;23;20029;-78
2021/01/04 02:33:01;;;;;;;32.17;17.13;;;;;;;2.13;78.36;99474.16;3828358;23;20018;-79
2021/01/04 02:34:36;;;;;;;31.40;16.42;;;;;;;2.15;78.32;99469.63;3829392;23;20012;-79
2021/01/04 02:36:07;;;;;;;30.60;16.98;;;;;;;2.13;78.52;99468.88;3827638;23;20450;-80
2021/01/04 02:37:38;;;;;;;;;;;;;;;1.93;78.73;99481.63;3830777;23;20048;-79
2021/01/04 02:39:14;;;;;;;29.95;16.25;;;;;;;2.05;78.71;99476.47;3831488;23;19917;-78
2021/01/04 02:40:46;;;;;;;24.38;12.93;;;;;;;2.11;78.68;99476.03;3833734;23;20025;-78
2021/01/04 02:42:26;;;;;;;26.58;14.15;;;;;;;2.18;78.12;99478.16;3832189;23;20009;-78
2021/01/04 02:43:57;;;;;;;25.65;13.52;;;;;;;2.19;78.49;99468.44;3834969;23;20013;-78
2021/01/04 02:45:30;;;;;;;;;;;;;;;2.10;78.32;99475.22;3832198;23;20029;-78
2021/01/04 02:47:43;;;;;;;24.60;12.77;;;;;;;2.24;78.23;99474.28;3835278;23;19921;-78
2021/01/04 02:49:23;;;;;;;24.48;12.75;;;;;;;2.30;77.98;99481.75;3831007;23;20048;-80
2021/01/04 02:51:03;;;;;;;23.85;13.05;;;;;;;2.35;77.85;99478.78;3826642;23;20498;-80
2021/01/04 02:52:50;;;;;;;25.75;13.30;;;;;;;2.31;77.97;99474.69;3829119;23;20026;-80
2021/01/04 02:54:27;;;;;;;21.75;11.57;;;;;;;2.37;78.02;99473.41;3826748;23;20021;-79
2021/01/04 02:56:17;;;;;;;22.88;11.90;;;;;;;2.41;77.76;99480.16;3827518;23;20036;-80
2021/01/04 02:57:54;;;;;;;24.25;13.00;;;;;;;2.40;77.98;99475.84;3827479;23;20028;-80
2021/01/04 02:59:39;;;;;;;27.15;14.25;;;;;;;2.32;77.92;99474.56;3830269;23;20032;-78
2021/01/04 03:01:17;;;;;;;29.15;15.68;;;;;;;2.32;77.82;99471.94;3832810;23;20513;-77
2021/01/04 03:02:54;;;;;;;26.63;14.75;;;;;;;2.34;77.79;99472.69;3827969;23;20012;-80
2021/01/04 03:04:27;;;;;;;28.65;15.65;;;;;;;2.32;77.99;99473.72;3832024;23;20022;-79
2021/01/04 03:06:02;;;;;;;28.48;15.13;;;;;;;2.37;77.87;99473.41;3824553;23;20025;-78
2021/01/04 03:07:33;;;;;;;28.48;14.45;;;;;;;2.37;77.85;99481.31;3829094;23;20025;-80
2021/01/04 03:09:07;;;;;;;31.05;16.30;;;;;;;2.36;77.90;99479.66;3826171;23;20029;-80
2021/01/04 03:10:39;;;;;;;32.67;17.35;;;;;;;2.37;77.91;99482.19;3828420;23;20026;-80
2021/01/04 03:12:15;;;;;;;28.35;15.45;;;;;;;2.30;77.88;99481.75;3826046;23;20033;-80
2021/01/04 03:13:53;;;;;;;30.40;15.70;;;;;;;2.21;77.99;99479.75;3829166;23;20025;-80
2021/01/04 03:15:39;;;;;;;30.88;16.50;;;;;;;2.28;78.12;99478.38;3827094;23;20088;-80
2021/01/04 03:17:20;;;;;;;26.52;14.15;;;;;;;2.26;77.96;99475.00;3830291;23;20025;-78
2021/01/04 03:18:58;;;;;;;31.92;15.05;;;;;;;2.27;78.19;99487.22;3827658;23;20025;-79
2021/01/04 03:20:30;;;;;;;29.17;14.98;;;;;;;2.30;78.10;99486.19;3826099;23;20014;-79
2021/01/04 03:22:05;;;;;;;28.33;15.32;;;;;;;2.31;77.97;99483.44;3831077;23;20022;-80
2021/01/04 03:23:36;;;;;;;29.35;16.52;;;;;;;2.24;78.34;99481.31;3825673;23;20390;-77
2021/01/04 03:25:16;;;;;;;30.80;15.23;;;;;;;2.29;78.02;99484.50;3829856;23;20021;-77
2021/01/04 03:26:52;;;;;;;26.33;14.05;;;;;;;2.36;77.99;99479.66;3824657;23;20409;-79
2021/01/04 03:28:27;;;;;;;28.23;15.30;;;;;;;2.30;78.05;99481.75;3828878;23;20248;-80
2021/01/04 03:29:58;;;;;;;26.30;14.32;;;;;;;2.28;78.24;99488.91;3827184;23;20189;-79
2021/01/04 03:31:30;;;;;;;25.50;13.63;;;;;;;2.29;78.20;99469.50;3828804;23;20346;-77
2021/01/04 03:33:01;;;;;;;26.40;13.63;;;;;;;2.41;78.06;99478.34;3827029;23;20025;-80
2021/01/04 03:34:33;;;;;;;25.80;12.70;;;;;;;2.46;77.80;99476.25;3828113;23;20017;-79
2021/01/04 03:36:05;;;;;;;26.83;14.32;;;;;;;2.51;77.70;99478.56;3827066;23;20059;-78
2021/01/04 03:37:36;;;;;;;26.08;14.73;;;;;;;2.38;77.73;99475.94;3828286;23;20048;-79
2021/01/04 03:39:07;;;;;;;;;;;;;;;2.19;78.03;99479.00;3829159;23;20025;-80
2021/01/04 03:40:38;;;;;;;25.88;14.30;;;;;;;2.34;78.07;99477.09;3829369;23;20023;-79
2021/01/04 03:42:11;;;;;;;27.05;14.07;;;;;;;2.36;77.79;99480.47;3827073;23;20021;-78
2021/01/04 03:43:43;;;;;;;25.83;12.50;;;;;;;2.41;77.63;99469.59;3827924;23;20021;-79
2021/01/04 03:45:16;;;;;;;21.02;10.60;;;;;;;2.46;77.69;99478.03;3825343;23;20032;-79
2021/01/04 03:46:47;;;;;;;30.30;16.15;;;;;;;2.42;77.64;99485.31;3828367;23;20026;-79
2021/01/04 03:48:19;;;;;;;32.53;18.25;;;;;;;2.31;77.84;99472.06;3826646;23;20049;-78
2021/01/04 03:49:51;;;;;;;27.15;15.27;;;;;;;2.26;78.25;99482.06;3832036;23;20082;-77
2021/01/04 03:51:22;;;;;;;33.08;18.70;;;;;;;2.24;78.30;99478.69;3830803;23;20005;-77
2021/01/04 03:52:53;;;;;;;30.38;16.17;;;;;;;2.23;78.14;99474.34;3835518;23;20021;-77
2021/01/04 03:54:25;;;;;;;33.95;18.55;;;;;;;2.17;78.37;99471.19;3832017;23;20021;-80
2021/01/04 03:55:56;;;;;;;31.80;16.95;;;;;;;2.16;78.35;99473.94;3831190;23;20033;-79
2021/01/04 03:57:27;;;;;;;32.38;16.60;;;;;;;2.18;78.54;99478.16;3826972;23;20018;-79
2021/01/04 03:58:59;;;;;;;;;;;;;;;2.12;78.68;99477.72;3830401;23;20081;-78
2021/01/04 04:00:30;;;;;;;25.83;12.82;;;;;;;2.20;78.53;99467.50;3828116;23;19916;-78
2021/01/04 04:02:03;;;;;;;29.88;16.10;;;;;;;2.24;78.35;99476.91;3830555;23;20078;-80
2021/01/04 04:03:34;;;;;;;28.50;15.43;;;;;;;2.16;78.40;99477.41;3830050;23;20021;-80
2021/01/04 04:05:07;;;;;;;31.50;16.55;;;;;;;2.20;78.35;99479.84;3830980;23;20033;-78
2021/01/04 04:06:38;;;;;;;26.73;14.73;;;;;;;2.25;78.32;99478.59;3828128;23;20024;-79
2021/01/04 04:08:09;;;;;;;;;;;;;;;2.08;78.67;99478.91;3831867;23;20082;-79
2021/01/04 04:09:39;;;;;;;28.75;15.23;;;;;;;2.10;78.62;99480.50;3829625;23;19904;-79
2021/01/04 04:11:14;;;;;;;;;;;;;;;1.97;79.04;99480.47;3832731;23;20418;-79
2021/01/04 04:12:46;;;;;;;31.38;15.07;;;;;;;2.10;78.53;99474.34;3828343;23;19920;-80
2021/01/04 04:14:19;;;;;;;32.00;17.05;;;;;;;2.03;78.48;99479.22;3832679;23;20021;-78
2021/01/04 04:15:50;;;;;;;31.30;16.60;;;;;;;2.00;78.62;99480.25;3828995;23;20098;-79
2021/01/04 04:17:21;;;;;;;32.80;16.20;;;;;;;2.08;78.58;99482.38;3830946;23;20037;-78
2021/01/04 04:18:52;;;;;;;29.23;15.25;;;;;;;2.10;78.53;99483.13;3827647;23;20009;-79
2021/01/04 04:20:24;;;;;;;;;;;;;;;2.03;78.99;99492.41;3828575;23;20025;-77
2021/01/04 04:21:56;;;;;;;28.77;14.45;;;;;;;2.12;78.64;99485.66;3831048;23;20330;-78
2021/01/04 04:23:26;;;;;;;25.92;14.02;;;;;;;2.17;78.42;99475.66;3826338;23;20032;-80
2021/01/04 04:25:16;;;;;;;;;;;;;;;2.13;78.52;99477.63;3826959;23;20025;-79
2021/01/04 04:27:26;;;;;;;26.58;14.85;;;;;;;2.17;78.28;99483.56;3825728;23;19916;-78
2021/01/04 04:29:35;;;;;;;32.28;16.23;;;;;;;2.12;78.40;99483.88;3830075;23;20351;-78
2021/01/04 04:31:26;;;;;;;29.05;16.13;;;;;;;2.13;78.20;99479.44;3825552;23;20016;-80
2021/01/04 04:32:59;;;;;;;26.55;15.10;;;;;;;2.23;78.37;99480.50;3826399;23;20072;-79
2021/01/04 04:34:31;;;;;;;26.58;14.15;;;;;;;2.24;78.18;99479.53;3829075;23;20025;-78
2021/01/04 04:36:02;;;;;;;26.75;14.25;;;;;;;2.26;78.36;99469.75;3825036;23;20018;-78
2021/01/04 04:37:34;;;;;;;28.88;16.70;;;;;;;2.28;78.20;99483.63;3828998;23;20032;-78
2021/01/04 04:39:04;;;;;;;33.25;16.83;;;;;;;2.24;78.16;99474.28;3828204;23;20017;-80
2021/01/04 04:40:35;;;;;;;;;;;;;;;2.11;78.52;99482.19;3829488;23;20108;-79
2021/01/04 04:42:10;;;;;;;25.13;14.10;;;;;;;2.22;78.47;99477.97;3833239;23;19915;-77
2021/01/04 04:43:46;;;;;;;28.35;15.13;;;;;;;2.19;78.28;99473.72;3824838;23;20037;-79
2021/01/04 04:45:20;;;;;;;29.13;15.25;;;;;;;2.16;78.46;99477.41;3819944;23;20022;-79
2021/01/04 04:47:06;;;;;;;33.00;15.88;;;;;;;2.24;77.99;99478.69;3820243;23;20104;-79
2021/01/04 04:48:50;;;;;;;29.98;14.93;;;;;;;2.17;78.14;99470.38;3819100;23;20060;-78
2021/01/04 04:50:56;;;;;;;26.98;13.25;;;;;;;2.18;78.25;99477.31;3820000;23;20025;-79
2021/01/04 04:53:03;;;;;;;27.80;15.32;;;;;;;2.12;78.23;99483.00;3820296;23;20028;-78
2021/01/04 04:55:04;;;;;;;28.92;14.20;;;;;;;2.12;78.29;99472.47;3785511;23;20058;-78
2021/01/04 04:56:49;;;;;;;25.63;13.32;;;;;;;2.15;78.31;99477.53;3817784;23;20036;-79
2021/01/04 04:58:36;;;;;;;22.70;10.70;;;;;;;2.27;77.93;99481.94;3821201;23;20022;-78
2021/01/04 05:00:26;;;;;;;29.38;14.80;;;;;;;2.31;77.72;99483.44;3817783;23;20028;-79
2021/01/04 05:02:05;;;;;;;24.30;11.65;;;;;;;2.31;77.98;99483.44;3817577;23;20033;-79
2021/01/04 05:03:53;;;;;;;19.55;9.73;;;;;;;2.42;77.79;99479.22;3816914;23;20027;-79
2021/01/04 05:05:30;;;;;;;22.67;11.68;;;;;;;2.46;77.58;99489.44;3815872;23;20111;-79
2021/01/04 05:07:09;;;;;;;26.73;13.35;;;;;;;2.50;77.42;99479.53;3819942;23;20084;-78
2021/01/04 05:08:57;;;;;;;22.58;11.18;;;;;;;2.47;77.55;99471.81;3816287;23;20029;-78
2021/01/04 05:10:33;;;;;;;26.50;13.15;;;;;;;2.44;77.78;99478.16;3821383;23;20344;-78
2021/01/04 05:12:13;;;;;;;23.30;12.02;;;;;;;2.43;77.51;99487.00;3816637;23;20500;-78
2021/01/04 05:13:48;;;;;;;25.83;13.90;;;;;;;2.39;77.68;99489.97;3819375;23;20105;-78
2021/01/04 05:15:33;;;;;;;28.27;15.27;;;;;;;2.33;77.81;99481.53;3816964;23;20072;-79
2021/01/04 05:17:23;;;;;;;30.95;15.43;;;;;;;2.30;77.79;99479.09;3821306;23;20021;-78
2021/01/04 05:19:24;;;;;;;26.30;13.57;;;;;;;2.25;78.00;99485.66;3817529;23;20017;-78
2021/01/04 05:21:23;;;;;;;26.58;14.73;;;;;;;2.27;78.00;99489.03;3744017;23;20663;-79
2021/01/04 05:23:21;;;;;;;21.52;12.13;;;;;;;2.33;77.96;99492.09;3820533;23;20067;-79
2021/01/04 05:25:24;;;;;;;19.20;9.63;;;;;;;2.36;77.76;99490.22;3817221;23;20463;-79
2021/01/04 05:27:33;;;;;;;23.20;11.93;;;;;;;2.36;77.55;99492.84;3816312;23;20102;-79
2021/01/04 05:29:41;;;;;;;29.13;14.55;;;;;;;2.30;77.75;99496.75;3819915;23;20036;-79
2021/01/04 05:31:48;;;;;;;26.98;13.93;;;;;;;2.30;77.72;99492.31;3814801;23;20068;-79
2021/01/04 05:33:36;;;;;;;32.10;16.48;;;;;;;2.20;77.70;99499.16;3817259;23;20024;-79
2021/01/04 05:35:11;;;;;;;29.83;15.50;;;;;;;2.20;77.99;99500.97;3821487;23;20471;-79
2021/01/04 05:37:08;;;;;;;24.73;12.48;;;;;;;2.24;77.88;99500.66;3817481;23;20619;-78
2021/01/04 05:38:48;;;;;;;29.23;13.45;;;;;;;2.31;77.64;99494.00;3819153;23;20021;-79
2021/01/04 05:40:58;;;;;;;30.85;14.38;;;;;;;2.26;77.49;99490.84;3820388;23;20032;-79
2021/01/04 05:42:54;;;;;;;26.40;13.10;;;;;;;2.34;77.48;99488.50;3820331;23;20143;-78
2021/01/04 05:44:58;;;;;;;23.08;12.38;;;;;;;2.36;77.15;99496.31;3816181;23;20026;-79
2021/01/04 05:46:36;;;;;;;27.45;13.18;;;;;;;2.38;77.18;99496.19;3819515;23;20025;-78
2021/01/04 05:48:15;;;;;;;25.35;12.25;;;;;;;2.47;76.99;99492.91;3817104;23;20029;-79
2021/01/04 05:49:55;;;;;;;23.30;10.80;;;;;;;2.50;76.89;99492.72;3820850;23;20022;-79
2021/01/04 05:51:31;;;;;;;21.60;10.93;;;;;;;2.51;77.18;99497.06;3820469;23;20017;-79
2021/01/04 05:53:03;;;;;;;22.58;10.52;;;;;;;2.54;76.87;99498.63;3819388;23;20047;-79
2021/01/04 05:54:36;;;;;;;21.77;10.40;;;;;;;2.55;76.80;99485.31;3815769;23;20018;-78
2021/01/04 05:56:07;;;;;;;28.27;13.52;;;;;;;2.52;76.69;99493.47;3819719;23;20021;-78
2021/01/04 05:57:43;;;;;;;;;;;;;;;2.26;77.09;99493.47;3816833;23;20035;-78
2021/01/04 05:59:17;;;;;;;30.45;14.73;;;;;;;2.26;77.33;99495.25;3819826;23;19917;-79
2021/01/04 06:00:48;;;;;;;33.30;17.10;;;;;;;2.18;77.38;99494.00;3816914;23;20033;-79
2021/01/04 06:02:30;;;;;;;31.50;15.88;;;;;;;2.15;77.11;99494.19;3820595;23;20080;-77
2021/01/04 06:04:04;;;;;;;28.77;16.20;;;;;;;2.14;77.71;99492.50;3817625;23;20018;-79
2021/01/04 06:05:36;;;;;;;27.75;14.27;;;;;;;2.17;77.51;99491.47;3816803;23;20048;-78
2021/01/04 06:07:07;;;;;;;29.85;16.40;;;;;;;2.20;77.45;99496.50;3819967;23;20040;-78
2021/01/04 06:08:39;;;;;;;27.02;15.18;;;;;;;2.17;77.47;99496.75;3816879;23;20359;-78
2021/01/04 06:10:21;;;;;;;29.63;15.68;;;;;;;2.14;77.36;99496.94;3820365;23;20087;-78
2021/01/04 06:11:56;;;;;;;35.05;17.52;;;;;;;2.07;77.81;99503.59;3817041;23;20028;-78
2021/01/04 06:13:27;;;;;;;29.60;15.93;;;;;;;2.10;77.85;99498.94;3820200;23;20032;-78
2021/01/04 06:14:59;;;;;;;29.30;15.23;;;;;;;2.17;77.60;99502.03;3817728;23;20072;-78
2021/01/04 06:16:30;;;;;;;24.40;13.18;;;;;;;2.21;77.46;99503.47;3819786;23;20030;-78
2021/01/04 06:18:05;;;;;;;29.02;13.00;;;;;;;2.27;77.38;99497.78;3818289;23;20022;-79
2021/01/04 06:19:39;;;;;;;27.73;14.60;;;;;;;2.23;77.44;99501.59;3821091;23;20447;-79
2021/01/04 06:21:22;;;;;;;29.17;14.95;;;;;;;2.27;77.12;99504.84;3820374;23;20049;-78
2021/01/04 06:22:53;;;;;;;27.95;13.95;;;;;;;2.29;77.46;99501.16;3825160;23;20180;-79
2021/01/04 06:24:30;;;;;;;31.55;15.70;;;;;;;2.26;77.37;99496.13;3818600;23;20013;-79
2021/01/04 06:26:04;;;;;;;25.42;12.27;;;;;;;2.29;77.57;99500.31;3825715;23;20097;-77
2021/01/04 06:27:38;;;;;;;21.23;11.18;;;;;;;2.38;77.49;99496.19;3824185;23;20021;-81
2021/01/04 06:29:09;;;;;;;24.30;12.98;;;;;;;2.39;77.32;99501.38;3826575;23;20029;-79
2021/01/04 06:30:40;;;;;;;;;;;;;;;2.29;77.47;99498.53;3824231;23;20017;-80
2021/01/04 06:32:25;;;;;;;20.90;9.93;;;;;;;2.41;77.14;99504.75;3825397;23;20345;-80
2021/01/04 06:33:59;;;;;;;24.70;11.50;;;;;;;2.49;77.09;99497.16;3826054;23;20021;-77
2021/01/04 06:35:31;;;;;;;26.20;12.90;;;;;;;2.49;76.98;99501.59;3815721;23;20033;-79
2021/01/04 06:37:11;;;;;;;29.65;14.75;;;;;;;2.43;76.88;99497.56;3819093;23;20447;-79
2021/01/04 06:38:44;;;;;;;34.15;17.25;;;;;;;2.25;77.48;99494.44;3817537;23;20025;-78
2021/01/04 06:40:32;;;;;;;28.13;16.20;;;;;;;2.23;77.51;99493.69;3819503;23;20080;-79
2021/01/04 06:42:16;;;;;;;27.73;13.55;;;;;;;2.31;77.29;99496.63;3818200;23;20018;-78
2021/01/04 06:43:47;;;;;;;27.05;12.82;;;;;;;2.41;77.37;99493.34;3818979;23;20068;-78
2021/01/04 06:45:24;;;;;;;;;;;;;;;2.26;77.48;99501.38;3818535;23;20503;-78
2021/01/04 06:47:25;;;;;;;25.85;13.57;;;;;;;2.30;77.49;99502.03;3819933;23;20023;-78
2021/01/04 06:48:59;;;;;;;36.28;19.23;;;;;;;2.24;77.79;99505.91;3819477;23;20032;-78
2021/01/04 06:50:37;;;;;;;36.42;19.25;;;;;;;2.24;77.97;99505.91;3829327;23;20032;-76
2021/01/04 06:52:41;;;;;;;28.70;17.60;;;;;;;2.25;77.79;99497.06;3835026;23;20021;-78
2021/01/04 06:54:41;;;;;;;35.75;17.98;;;;;;;2.12;77.67;99504.09;3792299;23;20041;-78
2021/01/04 06:56:49;;;;;;;28.17;15.68;;;;;;;2.09;77.73;99507.81;3834958;23;20033;-77
2021/01/04 06:58:49;;;;;;;34.45;17.10;;;;;;;2.06;77.78;99504.53;3830936;23;20018;-77
2021/01/04 07:00:40;;;;;;;26.92;13.65;;;;;;;2.10;77.84;99506.00;3831577;23;20347;-78
2021/01/04 07:02:53;;;;;;;25.05;12.95;;;;;;;2.14;77.50;99502.22;3834662;23;20013;-77
2021/01/04 07:04:45;;;;;;;29.15;15.00;;;;;;;2.14;77.69;99504.84;3833264;23;20029;-76
2021/01/04 07:06:56;;;;;;;27.17;13.73;;;;;;;2.20;77.45;99507.06;3833002;23;20024;-78
2021/01/04 07:09:12;;;;;;;26.13;12.63;;;;;;;2.24;77.38;99503.28;3831168;23;20033;-76
2021/01/04 07:11:00;;;;;;;24.65;14.25;;;;;;;2.23;77.31;99506.88;3833461;23;20024;-77
2021/01/04 07:12:49;;;;;;;25.33;13.38;;;;;;;2.34;77.24;99509.63;3831682;23;20021;-77
2021/01/04 07:14:46;;;;;;;23.80;11.40;;;;;;;2.38;77.20;99501.47;3826079;23;20080;-78
2021/01/04 07:16:44;;;;;;;23.63;12.00;;;;;;;2.42;77.16;99509.06;3819976;23;20080;-78
2021/01/04 07:18:28;;;;;;;22.45;11.55;;;;;;;2.49;76.89;99501.59;3818141;23;20014;-78
2021/01/04 07:20:18;;;;;;;25.70;13.07;;;;;;;2.45;76.48;99505.41;3821225;23;20021;-78
2021/01/04 07:21:57;;;;;;;30.80;15.45;;;;;;;2.33;76.89;99505.28;3818038;23;20026;-78
2021/01/04 07:23:45;;;;;;;28.80;14.38;;;;;;;2.33;77.11;99513.19;3819516;23;20025;-78
2021/01/04 07:25:29;;;;;;;23.48;12.02;;;;;;;2.41;76.83;99503.91;3826104;23;20085;-77
2021/01/04 07:27:31;;;;;;;27.33;14.70;;;;;;;2.32;76.82;99503.59;3833181;23;20025;-77
2021/01/04 07:29:21;;;;;;;31.25;15.93;;;;;;;2.35;77.09;99507.81;3835520;23;20009;-76
2021/01/04 07:30:57;;;;;;;22.85;12.93;;;;;;;2.37;77.06;99505.91;3830042;23;20021;-79
2021/01/04 07:32:43;;;;;;;32.22;16.92;;;;;;;2.41;76.65;99503.91;3824381;23;20054;-78
2021/01/04 07:34:22;;;;;;;34.85;15.23;;;;;;;2.30;76.64;99513.41;3824535;23;20026;-79
2021/01/04 07:36:01;;;;;;;26.55;14.32;;;;;;;2.30;76.75;99505.50;3818747;23;20029;-79
2021/01/04 07:37:44;;;;;;;27.70;14.70;;;;;;;2.37;76.68;99507.69;3821974;23;20029;-77
2021/01/04 07:39:29;;;;;;;24.95;13.13;;;;;;;2.41;76.32;99514.47;3817058;23;20022;-79
2021/01/04 07:41:10;;;;;;;26.05;13.18;;;;;;;2.47;76.24;99509.63;3821083;23;20025;-79
2021/01/04 07:43:20;;;;;;;25.55;13.30;;;;;;;2.33;76.07;99513.19;3818501;23;20080;-79
2021/01/04 07:45:34;;;;;;;28.15;16.55;;;;;;;2.26;76.32;99511.94;3819091;23;20479;-79
2021/01/04 07:47:47;;;;;;;23.45;12.02;;;;;;;2.37;76.22;99508.56;3788758;23;20408;-79
2021/01/04 07:49:52;;;;;;;22.90;11.20;;;;;;;2.43;76.41;99517.84;3818320;23;20085;-79
2021/01/04 07:51:50;;;;;;;24.48;11.93;;;;;;;2.46;76.12;99514.97;3827608;23;20017;-79
2021/01/04 07:53:45;;;;;;;24.25;12.82;;;;;;;2.49;76.19;99514.78;3828777;23;20068;-79
2021/01/04 07:55:47;;;;;;;27.65;13.55;;;;;;;2.46;76.25;99523.75;3826812;23;20358;-79
2021/01/04 07:57:55;;;;;;;27.00;12.63;;;;;;;2.51;76.04;99523.44;3821046;23;20021;-79
2021/01/04 08:00:03;;;;;;;24.38;13.48;;;;;;;2.45;76.15;99518.59;3817288;23;20022;-79
2021/01/04 08:02:10;;;;;;;21.00;11.27;;;;;;;2.47;76.02;99519.31;3820206;23;20021;-79